sensor_id;sensor_type;location;lat;lon;timestamp;temperature;humidity
75296;DHT22;64623;44.738;37.804;2023-08-21T00:00:22;8.78;118.99
75296;DHT22;64623;44.738;37.804;2023-08-21T00:01:25;8.78;118.99
75296;DHT22;64623;44.738;37.804;2023-08-21T00:02:28;8.76;118.99
75296;DHT22;64623;44.738;37.804;2023-08-21T00:03:31;8.75;118.99
75296;DHT22;64623;44.738;37.804;2023-08-21T00:04:34;8.74;118.99
75296;DHT22;64623;44.738;37.804;2023-08-21T00:05:37;8.73;118.99
75296;DHT22;64623;44.738;37.804;2023-08-21T00:06:40;8.74;118.99
75296;DHT22;64623;44.738;37.804;2023-08-21T00:07:43;8.74;118.99
75296;DHT22;64623;44.738;37.804;2023-08-21T00:08:46;8.75;118.99
75296;DHT22;64623;44.738;37.804;2023-08-21T00:09:49;8.75;118.99
75296;DHT22;64623;44.738;37.804;2023-08-21T00:10:53;8.75;118.99
75296;DHT22;64623;44.738;37.804;2023-08-21T00:11:55;8.75;118.99
75296;DHT22;64623;44.738;37.804;2023-08-21T00:12:58;8.73;118.99
75296;DHT22;64623;44.738;37.804;2023-08-21T00:14:01;8.72;118.99
75296;DHT22;64623;44.738;37.804;2023-08-21T00:15:05;8.72;118.99
75296;DHT22;64623;44.738;37.804;2023-08-21T00:16:08;8.72;118.99
75296;DHT22;64623;44.738;37.804;2023-08-21T00:17:11;8.72;118.99
75296;DHT22;64623;44.738;37.804;2023-08-21T00:18:14;8.72;118.99
75296;DHT22;64623;44.738;37.804;2023-08-21T00:19:17;8.71;118.99
75296;DHT22;64623;44.738;37.804;2023-08-21T00:20:20;8.72;118.99
75296;DHT22;64623;44.738;37.804;2023-08-21T00:21:23;8.72;118.99
75296;DHT22;64623;44.738;37.804;2023-08-21T00:22:26;8.73;118.99
75296;DHT22;64623;44.738;37.804;2023-08-21T00:23:29;8.72;118.99
75296;DHT22;64623;44.738;37.804;2023-08-21T00:24:33;8.72;118.99
75296;DHT22;64623;44.738;37.804;2023-08-21T00:25:36;8.72;118.99
75296;DHT22;64623;44.738;37.804;2023-08-21T00:26:40;8.71;118.99
75296;DHT22;64623;44.738;37.804;2023-08-21T00:27:43;8.73;118.99
75296;DHT22;64623;44.738;37.804;2023-08-21T00:28:46;8.73;118.99
75296;DHT22;64623;44.738;37.804;2023-08-21T00:29:49;8.70;118.99
75296;DHT22;64623;44.738;37.804;2023-08-21T00:31:00;8.72;118.99
75296;DHT22;64623;44.738;37.804;2023-08-21T00:32:05;8.73;118.99
75296;DHT22;64623;44.738;37.804;2023-08-21T00:33:09;8.74;118.99
75296;DHT22;64623;44.738;37.804;2023-08-21T00:34:12;8.73;118.99
75296;DHT22;64623;44.738;37.804;2023-08-21T00:35:15;8.72;118.99
75296;DHT22;64623;44.738;37.804;2023-08-21T00:36:19;8.71;118.99
75296;DHT22;64623;44.738;37.804;2023-08-21T00:37:23;8.72;118.99
75296;DHT22;64623;44.738;37.804;2023-08-21T00:38:26;8.71;118.99
75296;DHT22;64623;44.738;37.804;2023-08-21T00:39:29;8.70;118.99
75296;DHT22;64623;44.738;37.804;2023-08-21T00:40:32;8.65;118.99
75296;DHT22;64623;44.738;37.804;2023-08-21T00:41:35;8.66;118.99
75296;DHT22;64623;44.738;37.804;2023-08-21T00:42:38;8.65;118.99
75296;DHT22;64623;44.738;37.804;2023-08-21T00:43:42;8.64;118.99
75296;DHT22;64623;44.738;37.804;2023-08-21T00:44:46;8.65;118.99
75296;DHT22;64623;44.738;37.804;2023-08-21T00:45:49;8.64;118.99
75296;DHT22;64623;44.738;37.804;2023-08-21T00:46:53;8.64;118.99
75296;DHT22;64623;44.738;37.804;2023-08-21T00:47:56;8.64;118.99
75296;DHT22;64623;44.738;37.804;2023-08-21T00:48:59;8.64;118.99
75296;DHT22;64623;44.738;37.804;2023-08-21T00:50:03;8.67;118.99
75296;DHT22;64623;44.738;37.804;2023-08-21T00:51:07;8.70;118.99
75296;DHT22;64623;44.738;37.804;2023-08-21T00:52:12;8.70;118.99
75296;DHT22;64623;44.738;37.804;2023-08-21T00:53:17;8.68;118.99
75296;DHT22;64623;44.738;37.804;2023-08-21T00:54:20;8.67;118.99
75296;DHT22;64623;44.738;37.804;2023-08-21T00:55:24;8.66;118.99
75296;DHT22;64623;44.738;37.804;2023-08-21T00:56:27;8.66;118.99
75296;DHT22;64623;44.738;37.804;2023-08-21T00:57:31;8.66;118.99
75296;DHT22;64623;44.738;37.804;2023-08-21T00:58:34;8.63;118.99
75296;DHT22;64623;44.738;37.804;2023-08-21T00:59:38;8.62;118.99
75296;DHT22;64623;44.738;37.804;2023-08-21T01:00:41;8.63;118.99
75296;DHT22;64623;44.738;37.804;2023-08-21T01:01:46;8.62;118.99
75296;DHT22;64623;44.738;37.804;2023-08-21T01:02:49;8.61;118.99
75296;DHT22;64623;44.738;37.804;2023-08-21T01:03:51;8.62;118.99
75296;DHT22;64623;44.738;37.804;2023-08-21T01:04:54;8.62;118.99
75296;DHT22;64623;44.738;37.804;2023-08-21T01:05:57;8.60;118.99
75296;DHT22;64623;44.738;37.804;2023-08-21T01:07:00;8.60;118.99
75296;DHT22;64623;44.738;37.804;2023-08-21T01:08:06;8.58;118.99
75296;DHT22;64623;44.738;37.804;2023-08-21T01:09:31;8.60;118.99
75296;DHT22;64623;44.738;37.804;2023-08-21T01:13:59;8.53;118.99
75296;DHT22;64623;44.738;37.804;2023-08-21T01:15:06;8.53;118.99
75296;DHT22;64623;44.738;37.804;2023-08-21T01:16:11;8.55;118.99
75296;DHT22;64623;44.738;37.804;2023-08-21T01:17:16;8.55;118.99
75296;DHT22;64623;44.738;37.804;2023-08-21T01:18:22;8.56;118.99
75296;DHT22;64623;44.738;37.804;2023-08-21T01:19:31;8.56;118.99
75296;DHT22;64623;44.738;37.804;2023-08-21T01:20:38;8.57;118.99
75296;DHT22;64623;44.738;37.804;2023-08-21T01:21:42;8.60;118.99
75296;DHT22;64623;44.738;37.804;2023-08-21T01:22:45;8.63;118.99
75296;DHT22;64623;44.738;37.804;2023-08-21T01:23:50;8.64;118.99
75296;DHT22;64623;44.738;37.804;2023-08-21T01:24:54;8.67;118.99
75296;DHT22;64623;44.738;37.804;2023-08-21T01:25:57;8.72;118.99
75296;DHT22;64623;44.738;37.804;2023-08-21T01:27:01;8.76;118.99
75296;DHT22;64623;44.738;37.804;2023-08-21T01:28:04;8.76;118.99
75296;DHT22;64623;44.738;37.804;2023-08-21T01:29:07;8.77;118.99
75296;DHT22;64623;44.738;37.804;2023-08-21T01:30:10;8.78;118.99
75296;DHT22;64623;44.738;37.804;2023-08-21T01:31:23;8.81;118.99
75296;DHT22;64623;44.738;37.804;2023-08-21T01:33:51;8.83;118.99
75296;DHT22;64623;44.738;37.804;2023-08-21T01:34:55;8.82;118.99
75296;DHT22;64623;44.738;37.804;2023-08-21T01:35:59;8.81;118.99
75296;DHT22;64623;44.738;37.804;2023-08-21T01:37:07;8.85;118.99
75296;DHT22;64623;44.738;37.804;2023-08-21T01:38:10;8.95;118.99
75296;DHT22;64623;44.738;37.804;2023-08-21T01:39:13;8.92;118.99
75296;DHT22;64623;44.738;37.804;2023-08-21T01:40:22;8.78;118.99
75296;DHT22;64623;44.738;37.804;2023-08-21T01:41:26;8.78;118.99
75296;DHT22;64623;44.738;37.804;2023-08-21T01:42:29;8.80;118.99
75296;DHT22;64623;44.738;37.804;2023-08-21T01:43:31;8.82;118.99
75296;DHT22;64623;44.738;37.804;2023-08-21T01:44:34;8.79;118.99
75296;DHT22;64623;44.738;37.804;2023-08-21T01:45:37;8.89;118.99
75296;DHT22;64623;44.738;37.804;2023-08-21T01:46:40;8.87;118.99
75296;DHT22;64623;44.738;37.804;2023-08-21T01:47:43;8.90;118.99
75296;DHT22;64623;44.738;37.804;2023-08-21T01:48:46;8.90;118.99
75296;DHT22;64623;44.738;37.804;2023-08-21T01:49:49;8.88;118.99
75296;DHT22;64623;44.738;37.804;2023-08-21T01:50:54;8.86;118.99
75296;DHT22;64623;44.738;37.804;2023-08-21T01:51:57;8.82;118.99
75296;DHT22;64623;44.738;37.804;2023-08-21T01:53:00;8.78;118.99
75296;DHT22;64623;44.738;37.804;2023-08-21T01:54:03;8.76;118.99
75296;DHT22;64623;44.738;37.804;2023-08-21T01:55:06;8.74;118.99
75296;DHT22;64623;44.738;37.804;2023-08-21T01:56:12;8.73;118.99
75296;DHT22;64623;44.738;37.804;2023-08-21T01:57:15;8.83;118.99
75296;DHT22;64623;44.738;37.804;2023-08-21T01:58:18;8.91;118.99
75296;DHT22;64623;44.738;37.804;2023-08-21T01:59:21;8.92;118.99
75296;DHT22;64623;44.738;37.804;2023-08-21T02:00:24;8.98;118.99
75296;DHT22;64623;44.738;37.804;2023-08-21T02:01:27;8.97;118.99
75296;DHT22;64623;44.738;37.804;2023-08-21T02:02:30;8.94;118.99
75296;DHT22;64623;44.738;37.804;2023-08-21T02:03:34;8.94;118.99
75296;DHT22;64623;44.738;37.804;2023-08-21T02:04:37;8.92;118.99
75296;DHT22;64623;44.738;37.804;2023-08-21T02:05:40;8.92;118.99
75296;DHT22;64623;44.738;37.804;2023-08-21T02:06:43;8.93;118.99
75296;DHT22;64623;44.738;37.804;2023-08-21T02:07:46;8.93;118.99
75296;DHT22;64623;44.738;37.804;2023-08-21T02:08:49;8.96;118.99
75296;DHT22;64623;44.738;37.804;2023-08-21T02:09:52;8.98;118.99
75296;DHT22;64623;44.738;37.804;2023-08-21T02:10:55;9.09;118.99
75296;DHT22;64623;44.738;37.804;2023-08-21T02:11:58;9.15;118.99
75296;DHT22;64623;44.738;37.804;2023-08-21T02:13:01;9.16;118.99
75296;DHT22;64623;44.738;37.804;2023-08-21T02:14:05;9.17;118.99
75296;DHT22;64623;44.738;37.804;2023-08-21T02:15:08;9.23;118.99
75296;DHT22;64623;44.738;37.804;2023-08-21T02:16:12;9.26;118.99
75296;DHT22;64623;44.738;37.804;2023-08-21T02:17:16;9.33;118.99
75296;DHT22;64623;44.738;37.804;2023-08-21T02:18:19;9.34;118.99
75296;DHT22;64623;44.738;37.804;2023-08-21T02:19:22;9.38;118.99
75296;DHT22;64623;44.738;37.804;2023-08-21T02:20:25;9.45;118.99
75296;DHT22;64623;44.738;37.804;2023-08-21T02:21:28;9.56;118.99
75296;DHT22;64623;44.738;37.804;2023-08-21T02:22:31;9.64;118.99
75296;DHT22;64623;44.738;37.804;2023-08-21T02:23:34;9.66;118.99
75296;DHT22;64623;44.738;37.804;2023-08-21T02:24:37;9.72;118.99
75296;DHT22;64623;44.738;37.804;2023-08-21T02:25:42;9.71;118.99
75296;DHT22;64623;44.738;37.804;2023-08-21T02:26:45;9.82;118.99
75296;DHT22;64623;44.738;37.804;2023-08-21T02:27:48;9.84;118.99
75296;DHT22;64623;44.738;37.804;2023-08-21T02:28:51;9.75;118.99
75296;DHT22;64623;44.738;37.804;2023-08-21T02:29:54;9.77;118.99
75296;DHT22;64623;44.738;37.804;2023-08-21T02:30:58;9.78;118.99
75296;DHT22;64623;44.738;37.804;2023-08-21T02:32:01;9.80;118.99
75296;DHT22;64623;44.738;37.804;2023-08-21T02:33:04;9.82;118.99
75296;DHT22;64623;44.738;37.804;2023-08-21T02:34:07;9.82;118.99
75296;DHT22;64623;44.738;37.804;2023-08-21T02:35:10;9.83;118.99
75296;DHT22;64623;44.738;37.804;2023-08-21T02:36:13;9.86;118.99
75296;DHT22;64623;44.738;37.804;2023-08-21T02:37:16;9.88;118.99
75296;DHT22;64623;44.738;37.804;2023-08-21T02:38:19;9.88;118.99
75296;DHT22;64623;44.738;37.804;2023-08-21T02:39:22;9.88;118.99
75296;DHT22;64623;44.738;37.804;2023-08-21T02:40:25;9.92;118.99
75296;DHT22;64623;44.738;37.804;2023-08-21T02:41:28;9.93;118.99
75296;DHT22;64623;44.738;37.804;2023-08-21T02:42:31;9.93;118.99
75296;DHT22;64623;44.738;37.804;2023-08-21T02:43:35;9.95;118.99
75296;DHT22;64623;44.738;37.804;2023-08-21T02:44:38;9.96;118.99
75296;DHT22;64623;44.738;37.804;2023-08-21T02:45:41;9.97;118.99
75296;DHT22;64623;44.738;37.804;2023-08-21T02:46:45;9.97;118.99
75296;DHT22;64623;44.738;37.804;2023-08-21T02:47:48;9.98;118.99
75296;DHT22;64623;44.738;37.804;2023-08-21T02:48:52;10.01;118.99
75296;DHT22;64623;44.738;37.804;2023-08-21T02:49:55;10.05;118.99
75296;DHT22;64623;44.738;37.804;2023-08-21T02:50:58;10.06;118.99
75296;DHT22;64623;44.738;37.804;2023-08-21T02:52:02;10.07;118.99
75296;DHT22;64623;44.738;37.804;2023-08-21T02:53:06;10.08;118.99
75296;DHT22;64623;44.738;37.804;2023-08-21T02:54:09;10.08;118.99
75296;DHT22;64623;44.738;37.804;2023-08-21T02:55:12;10.08;118.99
75296;DHT22;64623;44.738;37.804;2023-08-21T02:56:16;10.07;118.99
75296;DHT22;64623;44.738;37.804;2023-08-21T02:57:19;10.05;118.99
75296;DHT22;64623;44.738;37.804;2023-08-21T02:58:22;10.01;118.99
75296;DHT22;64623;44.738;37.804;2023-08-21T02:59:25;10.04;118.99
75296;DHT22;64623;44.738;37.804;2023-08-21T03:00:28;10.05;118.99
75296;DHT22;64623;44.738;37.804;2023-08-21T03:01:31;10.03;118.99
75296;DHT22;64623;44.738;37.804;2023-08-21T03:02:34;10.03;118.99
75296;DHT22;64623;44.738;37.804;2023-08-21T03:03:37;10.04;118.99
75296;DHT22;64623;44.738;37.804;2023-08-21T03:04:39;10.04;118.99
75296;DHT22;64623;44.738;37.804;2023-08-21T03:05:42;10.03;118.99
75296;DHT22;64623;44.738;37.804;2023-08-21T03:06:46;10.05;118.99
75296;DHT22;64623;44.738;37.804;2023-08-21T03:07:48;10.11;118.99
75296;DHT22;64623;44.738;37.804;2023-08-21T03:08:51;10.12;118.99
75296;DHT22;64623;44.738;37.804;2023-08-21T03:09:54;10.13;118.99
75296;DHT22;64623;44.738;37.804;2023-08-21T03:10:57;10.14;118.99
75296;DHT22;64623;44.738;37.804;2023-08-21T03:11:59;10.18;118.99
75296;DHT22;64623;44.738;37.804;2023-08-21T03:13:02;10.19;118.99
75296;DHT22;64623;44.738;37.804;2023-08-21T03:14:05;10.19;118.99
75296;DHT22;64623;44.738;37.804;2023-08-21T03:15:08;10.20;118.99
75296;DHT22;64623;44.738;37.804;2023-08-21T03:16:11;10.23;118.99
75296;DHT22;64623;44.738;37.804;2023-08-21T03:17:14;10.22;118.99
75296;DHT22;64623;44.738;37.804;2023-08-21T03:18:16;10.23;118.99
75296;DHT22;64623;44.738;37.804;2023-08-21T03:19:19;10.22;118.99
75296;DHT22;64623;44.738;37.804;2023-08-21T03:20:22;10.23;118.99
75296;DHT22;64623;44.738;37.804;2023-08-21T03:21:25;10.21;118.99
75296;DHT22;64623;44.738;37.804;2023-08-21T03:22:28;10.21;118.99
75296;DHT22;64623;44.738;37.804;2023-08-21T03:23:30;10.19;118.99
75296;DHT22;64623;44.738;37.804;2023-08-21T03:24:33;10.20;118.99
75296;DHT22;64623;44.738;37.804;2023-08-21T03:25:36;10.18;118.99
75296;DHT22;64623;44.738;37.804;2023-08-21T03:26:39;10.16;118.99
75296;DHT22;64623;44.738;37.804;2023-08-21T03:27:42;10.19;118.99
75296;DHT22;64623;44.738;37.804;2023-08-21T03:28:47;10.15;118.99
75296;DHT22;64623;44.738;37.804;2023-08-21T03:29:50;10.09;118.99
75296;DHT22;64623;44.738;37.804;2023-08-21T03:30:53;10.07;118.99
75296;DHT22;64623;44.738;37.804;2023-08-21T03:31:56;10.08;118.99
75296;DHT22;64623;44.738;37.804;2023-08-21T03:33:00;10.06;118.99
75296;DHT22;64623;44.738;37.804;2023-08-21T03:34:03;10.03;118.99
75296;DHT22;64623;44.738;37.804;2023-08-21T03:35:06;9.98;118.99
75296;DHT22;64623;44.738;37.804;2023-08-21T03:36:10;9.95;118.99
75296;DHT22;64623;44.738;37.804;2023-08-21T03:37:13;9.90;118.99
75296;DHT22;64623;44.738;37.804;2023-08-21T03:38:16;9.84;118.99
75296;DHT22;64623;44.738;37.804;2023-08-21T03:39:19;9.79;118.99
75296;DHT22;64623;44.738;37.804;2023-08-21T03:40:22;9.77;118.99
75296;DHT22;64623;44.738;37.804;2023-08-21T03:41:27;9.72;118.99
75296;DHT22;64623;44.738;37.804;2023-08-21T03:42:30;9.71;118.99
75296;DHT22;64623;44.738;37.804;2023-08-21T03:43:35;9.71;118.99
75296;DHT22;64623;44.738;37.804;2023-08-21T03:44:39;9.70;118.99
75296;DHT22;64623;44.738;37.804;2023-08-21T03:45:42;9.70;118.99
75296;DHT22;64623;44.738;37.804;2023-08-21T03:46:44;9.69;118.99
75296;DHT22;64623;44.738;37.804;2023-08-21T03:47:47;9.70;118.99
75296;DHT22;64623;44.738;37.804;2023-08-21T03:48:54;9.70;118.99
75296;DHT22;64623;44.738;37.804;2023-08-21T03:49:56;9.69;118.99
75296;DHT22;64623;44.738;37.804;2023-08-21T03:51:00;9.70;118.99
75296;DHT22;64623;44.738;37.804;2023-08-21T03:52:05;9.71;118.99
75296;DHT22;64623;44.738;37.804;2023-08-21T03:53:08;9.70;118.99
75296;DHT22;64623;44.738;37.804;2023-08-21T03:54:10;9.70;118.99
75296;DHT22;64623;44.738;37.804;2023-08-21T03:55:13;9.72;118.99
75296;DHT22;64623;44.738;37.804;2023-08-21T03:56:17;9.76;118.99
75296;DHT22;64623;44.738;37.804;2023-08-21T03:57:21;9.76;118.99
75296;DHT22;64623;44.738;37.804;2023-08-21T03:58:24;9.78;118.99
75296;DHT22;64623;44.738;37.804;2023-08-21T03:59:28;9.81;118.99
75296;DHT22;64623;44.738;37.804;2023-08-21T04:00:31;9.82;118.99
75296;DHT22;64623;44.738;37.804;2023-08-21T04:01:34;9.83;118.99
75296;DHT22;64623;44.738;37.804;2023-08-21T04:02:38;9.88;118.99
75296;DHT22;64623;44.738;37.804;2023-08-21T04:03:41;9.88;118.99
75296;DHT22;64623;44.738;37.804;2023-08-21T04:04:44;9.90;118.99
75296;DHT22;64623;44.738;37.804;2023-08-21T04:05:47;9.90;118.99
75296;DHT22;64623;44.738;37.804;2023-08-21T04:06:50;9.89;118.99
75296;DHT22;64623;44.738;37.804;2023-08-21T04:07:53;9.91;118.99
75296;DHT22;64623;44.738;37.804;2023-08-21T04:08:56;9.92;118.99
75296;DHT22;64623;44.738;37.804;2023-08-21T04:09:59;9.92;118.99
75296;DHT22;64623;44.738;37.804;2023-08-21T04:11:02;9.91;118.99
75296;DHT22;64623;44.738;37.804;2023-08-21T04:12:05;9.91;118.99
75296;DHT22;64623;44.738;37.804;2023-08-21T04:13:08;9.90;118.99
75296;DHT22;64623;44.738;37.804;2023-08-21T04:14:11;9.93;118.99
75296;DHT22;64623;44.738;37.804;2023-08-21T04:15:14;9.95;118.99
75296;DHT22;64623;44.738;37.804;2023-08-21T04:16:17;9.96;118.99
75296;DHT22;64623;44.738;37.804;2023-08-21T04:17:21;10.00;118.99
75296;DHT22;64623;44.738;37.804;2023-08-21T04:18:24;10.05;118.99
75296;DHT22;64623;44.738;37.804;2023-08-21T04:19:32;10.11;118.99
75296;DHT22;64623;44.738;37.804;2023-08-21T04:20:37;10.11;118.99
75296;DHT22;64623;44.738;37.804;2023-08-21T04:21:42;10.13;118.99
75296;DHT22;64623;44.738;37.804;2023-08-21T04:22:45;10.16;118.99
75296;DHT22;64623;44.738;37.804;2023-08-21T04:23:48;10.18;118.99
75296;DHT22;64623;44.738;37.804;2023-08-21T04:24:51;10.20;118.99
75296;DHT22;64623;44.738;37.804;2023-08-21T04:26:03;10.21;118.99
75296;DHT22;64623;44.738;37.804;2023-08-21T04:27:06;10.21;118.99
75296;DHT22;64623;44.738;37.804;2023-08-21T04:28:09;10.24;118.99
75296;DHT22;64623;44.738;37.804;2023-08-21T04:29:13;10.26;118.99
75296;DHT22;64623;44.738;37.804;2023-08-21T04:30:17;10.29;118.99
75296;DHT22;64623;44.738;37.804;2023-08-21T04:31:20;10.30;118.99
75296;DHT22;64623;44.738;37.804;2023-08-21T04:32:24;10.33;118.99
75296;DHT22;64623;44.738;37.804;2023-08-21T04:33:28;10.34;118.99
75296;DHT22;64623;44.738;37.804;2023-08-21T04:34:34;10.38;118.99
75296;DHT22;64623;44.738;37.804;2023-08-21T04:35:38;10.37;118.99
75296;DHT22;64623;44.738;37.804;2023-08-21T04:36:41;10.40;118.99
75296;DHT22;64623;44.738;37.804;2023-08-21T04:37:47;10.43;118.99
75296;DHT22;64623;44.738;37.804;2023-08-21T04:38:52;10.50;118.99
75296;DHT22;64623;44.738;37.804;2023-08-21T04:39:56;10.51;118.99
75296;DHT22;64623;44.738;37.804;2023-08-21T04:41:08;10.56;118.99
75296;DHT22;64623;44.738;37.804;2023-08-21T04:42:15;10.59;118.99
75296;DHT22;64623;44.738;37.804;2023-08-21T04:43:18;10.60;118.99
75296;DHT22;64623;44.738;37.804;2023-08-21T04:44:22;10.64;118.99
75296;DHT22;64623;44.738;37.804;2023-08-21T04:45:25;10.67;118.99
75296;DHT22;64623;44.738;37.804;2023-08-21T04:46:28;10.69;118.99
75296;DHT22;64623;44.738;37.804;2023-08-21T04:47:32;10.74;118.99
75296;DHT22;64623;44.738;37.804;2023-08-21T04:48:35;10.80;118.99
75296;DHT22;64623;44.738;37.804;2023-08-21T04:49:38;10.83;118.99
75296;DHT22;64623;44.738;37.804;2023-08-21T04:50:41;10.86;118.99
75296;DHT22;64623;44.738;37.804;2023-08-21T04:51:44;10.89;118.99
75296;DHT22;64623;44.738;37.804;2023-08-21T04:52:47;10.90;118.99
75296;DHT22;64623;44.738;37.804;2023-08-21T04:53:52;10.93;118.99
75296;DHT22;64623;44.738;37.804;2023-08-21T04:54:56;10.96;118.99
75296;DHT22;64623;44.738;37.804;2023-08-21T04:55:59;10.98;118.99
75296;DHT22;64623;44.738;37.804;2023-08-21T04:57:04;10.99;118.99
75296;DHT22;64623;44.738;37.804;2023-08-21T04:58:07;10.99;118.99
75296;DHT22;64623;44.738;37.804;2023-08-21T04:59:10;11.01;118.99
75296;DHT22;64623;44.738;37.804;2023-08-21T05:00:13;11.08;118.99
75296;DHT22;64623;44.738;37.804;2023-08-21T05:01:19;11.09;118.99
75296;DHT22;64623;44.738;37.804;2023-08-21T05:02:23;11.13;118.99
75296;DHT22;64623;44.738;37.804;2023-08-21T05:03:27;11.18;118.99
75296;DHT22;64623;44.738;37.804;2023-08-21T05:04:30;11.23;118.99
75296;DHT22;64623;44.738;37.804;2023-08-21T05:05:33;11.26;118.99
75296;DHT22;64623;44.738;37.804;2023-08-21T05:06:36;11.33;118.99
75296;DHT22;64623;44.738;37.804;2023-08-21T05:07:39;11.39;118.99
75296;DHT22;64623;44.738;37.804;2023-08-21T05:08:42;11.44;118.99
75296;DHT22;64623;44.738;37.804;2023-08-21T05:09:46;11.48;118.99
75296;DHT22;64623;44.738;37.804;2023-08-21T05:10:59;11.51;118.99
75296;DHT22;64623;44.738;37.804;2023-08-21T05:12:07;11.53;118.99
75296;DHT22;64623;44.738;37.804;2023-08-21T05:13:10;11.56;118.99
75296;DHT22;64623;44.738;37.804;2023-08-21T05:14:13;11.57;118.99
75296;DHT22;64623;44.738;37.804;2023-08-21T05:15:16;11.59;118.99
75296;DHT22;64623;44.738;37.804;2023-08-21T05:16:20;11.66;118.99
75296;DHT22;64623;44.738;37.804;2023-08-21T05:17:24;11.73;118.99
75296;DHT22;64623;44.738;37.804;2023-08-21T05:18:28;11.78;118.99
75296;DHT22;64623;44.738;37.804;2023-08-21T05:19:31;11.83;118.99
75296;DHT22;64623;44.738;37.804;2023-08-21T05:20:34;11.84;118.99
75296;DHT22;64623;44.738;37.804;2023-08-21T05:21:37;11.89;118.99
75296;DHT22;64623;44.738;37.804;2023-08-21T05:22:41;11.90;118.99
75296;DHT22;64623;44.738;37.804;2023-08-21T05:23:45;11.96;118.99
75296;DHT22;64623;44.738;37.804;2023-08-21T05:24:47;12.02;118.99
75296;DHT22;64623;44.738;37.804;2023-08-21T05:25:50;12.07;118.99
75296;DHT22;64623;44.738;37.804;2023-08-21T05:26:53;12.11;118.99
75296;DHT22;64623;44.738;37.804;2023-08-21T05:27:56;12.05;118.99
75296;DHT22;64623;44.738;37.804;2023-08-21T05:28:58;12.05;118.99
75296;DHT22;64623;44.738;37.804;2023-08-21T05:30:01;12.10;118.99
75296;DHT22;64623;44.738;37.804;2023-08-21T05:31:05;12.18;118.99
75296;DHT22;64623;44.738;37.804;2023-08-21T05:32:20;12.23;118.99
75296;DHT22;64623;44.738;37.804;2023-08-21T05:33:24;12.31;118.99
75296;DHT22;64623;44.738;37.804;2023-08-21T05:34:28;12.38;118.99
75296;DHT22;64623;44.738;37.804;2023-08-21T05:35:35;12.42;118.99
75296;DHT22;64623;44.738;37.804;2023-08-21T05:36:40;12.48;118.99
75296;DHT22;64623;44.738;37.804;2023-08-21T05:37:43;12.56;118.99
75296;DHT22;64623;44.738;37.804;2023-08-21T05:38:46;12.61;118.99
75296;DHT22;64623;44.738;37.804;2023-08-21T05:39:50;12.65;118.99
75296;DHT22;64623;44.738;37.804;2023-08-21T05:40:53;12.70;118.99
75296;DHT22;64623;44.738;37.804;2023-08-21T05:41:56;12.76;118.99
75296;DHT22;64623;44.738;37.804;2023-08-21T05:42:59;12.86;118.99
75296;DHT22;64623;44.738;37.804;2023-08-21T05:44:02;12.90;118.99
75296;DHT22;64623;44.738;37.804;2023-08-21T05:45:06;12.99;118.99
75296;DHT22;64623;44.738;37.804;2023-08-21T05:46:09;13.02;118.99
75296;DHT22;64623;44.738;37.804;2023-08-21T05:47:12;13.03;118.99
75296;DHT22;64623;44.738;37.804;2023-08-21T05:48:15;13.12;118.99
75296;DHT22;64623;44.738;37.804;2023-08-21T05:49:21;13.15;118.99
75296;DHT22;64623;44.738;37.804;2023-08-21T05:50:23;13.16;118.99
75296;DHT22;64623;44.738;37.804;2023-08-21T05:51:26;13.20;118.99
75296;DHT22;64623;44.738;37.804;2023-08-21T05:52:29;13.19;118.99
75296;DHT22;64623;44.738;37.804;2023-08-21T05:53:32;13.23;118.99
75296;DHT22;64623;44.738;37.804;2023-08-21T05:54:35;13.30;118.99
75296;DHT22;64623;44.738;37.804;2023-08-21T05:55:38;13.25;118.99
75296;DHT22;64623;44.738;37.804;2023-08-21T05:56:41;13.26;118.99
75296;DHT22;64623;44.738;37.804;2023-08-21T05:57:44;13.29;118.99
75296;DHT22;64623;44.738;37.804;2023-08-21T05:58:47;13.33;118.99
75296;DHT22;64623;44.738;37.804;2023-08-21T05:59:50;13.39;118.99
75296;DHT22;64623;44.738;37.804;2023-08-21T06:00:54;13.34;118.99
75296;DHT22;64623;44.738;37.804;2023-08-21T06:01:57;13.40;118.99
75296;DHT22;64623;44.738;37.804;2023-08-21T06:03:01;13.48;118.99
75296;DHT22;64623;44.738;37.804;2023-08-21T06:04:27;13.54;118.99
75296;DHT22;64623;44.738;37.804;2023-08-21T06:05:35;13.55;118.99
75296;DHT22;64623;44.738;37.804;2023-08-21T06:06:38;13.65;118.99
75296;DHT22;64623;44.738;37.804;2023-08-21T06:07:42;13.70;118.99
75296;DHT22;64623;44.738;37.804;2023-08-21T06:08:45;13.70;118.99
75296;DHT22;64623;44.738;37.804;2023-08-21T06:09:48;13.79;118.99
75296;DHT22;64623;44.738;37.804;2023-08-21T06:10:52;13.86;118.99
75296;DHT22;64623;44.738;37.804;2023-08-21T06:11:55;13.89;118.99
75296;DHT22;64623;44.738;37.804;2023-08-21T06:12:58;13.93;118.99
75296;DHT22;64623;44.738;37.804;2023-08-21T06:14:01;13.97;118.99
75296;DHT22;64623;44.738;37.804;2023-08-21T06:15:04;14.05;118.99
75296;DHT22;64623;44.738;37.804;2023-08-21T06:16:07;14.13;118.99
75296;DHT22;64623;44.738;37.804;2023-08-21T06:17:12;14.25;118.99
75296;DHT22;64623;44.738;37.804;2023-08-21T06:18:15;14.33;118.99
75296;DHT22;64623;44.738;37.804;2023-08-21T06:19:18;14.41;118.99
75296;DHT22;64623;44.738;37.804;2023-08-21T06:20:20;14.43;118.99
75296;DHT22;64623;44.738;37.804;2023-08-21T06:21:23;14.44;118.99
75296;DHT22;64623;44.738;37.804;2023-08-21T06:22:26;14.63;118.99
75296;DHT22;64623;44.738;37.804;2023-08-21T06:23:29;14.57;118.99
75296;DHT22;64623;44.738;37.804;2023-08-21T06:24:32;14.54;118.99
75296;DHT22;64623;44.738;37.804;2023-08-21T06:25:38;14.65;118.99
75296;DHT22;64623;44.738;37.804;2023-08-21T06:26:41;14.73;118.99
75296;DHT22;64623;44.738;37.804;2023-08-21T06:27:43;14.80;118.99
75296;DHT22;64623;44.738;37.804;2023-08-21T06:28:54;14.83;118.99
75296;DHT22;64623;44.738;37.804;2023-08-21T06:29:58;14.72;118.99
75296;DHT22;64623;44.738;37.804;2023-08-21T06:31:01;14.70;118.99
75296;DHT22;64623;44.738;37.804;2023-08-21T06:32:08;14.67;118.99
75296;DHT22;64623;44.738;37.804;2023-08-21T06:33:11;14.74;118.99
75296;DHT22;64623;44.738;37.804;2023-08-21T06:34:14;14.72;118.99
75296;DHT22;64623;44.738;37.804;2023-08-21T06:35:17;14.79;118.99
75296;DHT22;64623;44.738;37.804;2023-08-21T06:36:20;14.79;118.99
75296;DHT22;64623;44.738;37.804;2023-08-21T06:37:23;14.83;118.99
75296;DHT22;64623;44.738;37.804;2023-08-21T06:38:27;14.88;118.99